Time;durP1;ratioP1;P1;durP2;ratioP2;P2;SDS_P1;SDS_P2;PMS_P1;PMS_P2;Temp;Humidity;BMP_temperature;BMP_pressure;BME280_temperature;BME280_humidity;BME280_pressure;Samples;Min_cycle;Max_cycle;Signal;HPM_P1;HPM_P2
2022/05/17 00:00:44;;;;;;;24.58;22.08;;;16.80;99.90;;;;;;4992037;28;20568;-80
2022/05/17 00:03:13;;;;;;;24.40;21.92;;;16.80;99.90;;;;;;4990674;28;20205;-81
2022/05/17 00:05:42;;;;;;;24.20;21.45;;;16.70;99.90;;;;;;4991011;28;20196;-80
2022/05/17 00:08:10;;;;;;;25.15;21.30;;;16.70;99.90;;;;;;4991027;28;20227;-80
2022/05/17 00:10:37;;;;;;;25.30;22.73;;;16.60;99.90;;;;;;4992028;28;20208;-80
2022/05/17 00:13:05;;;;;;;24.63;22.02;;;16.60;99.90;;;;;;4992601;28;20566;-80
2022/05/17 00:15:36;;;;;;;23.13;20.73;;;16.60;99.90;;;;;;4992542;28;20213;-80
2022/05/17 00:18:04;;;;;;;20.75;18.60;;;16.60;99.90;;;;;;5007960;28;20227;-80
2022/05/17 00:20:31;;;;;;;21.90;19.60;;;16.50;99.90;;;;;;4993083;28;20215;-80
2022/05/17 00:22:58;;;;;;;20.13;18.23;;;16.50;99.90;;;;;;4994444;28;20203;-80
2022/05/17 00:25:26;;;;;;;21.70;19.48;;;16.60;99.90;;;;;;4989753;28;20450;-80
2022/05/17 00:27:54;;;;;;;21.60;19.35;;;16.60;99.90;;;;;;4989296;28;20224;-80
2022/05/17 00:30:22;;;;;;;23.02;20.67;;;16.70;99.90;;;;;;5008254;28;20200;-80
2022/05/17 00:32:51;;;;;;;22.50;20.20;;;16.80;99.90;;;;;;4988558;28;20209;-80
2022/05/17 00:35:18;;;;;;;23.38;18.58;;;16.80;99.90;;;;;;5007012;28;20214;-80
2022/05/17 00:37:46;;;;;;;19.15;17.15;;;16.70;99.90;;;;;;5007419;28;20216;-78
2022/05/17 00:40:14;;;;;;;20.83;18.75;;;16.60;99.90;;;;;;4988766;28;20200;-80
2022/05/17 00:42:42;;;;;;;21.58;18.90;;;16.50;99.90;;;;;;4990866;28;20200;-80
2022/05/17 00:45:10;;;;;;;20.35;18.13;;;16.50;99.90;;;;;;4988280;28;20670;-80
2022/05/17 00:47:43;;;;;;;19.92;17.92;;;16.40;99.90;;;;;;4989584;28;20221;-80
2022/05/17 00:50:17;;;;;;;20.05;17.92;;;16.40;99.90;;;;;;4985196;28;20196;-80
2022/05/17 00:52:47;;;;;;;18.50;16.67;;;16.40;99.90;;;;;;4990919;28;20196;-80
2022/05/17 00:55:20;;;;;;;17.77;16.08;;;16.40;99.90;;;;;;4986278;28;20200;-80
2022/05/17 00:57:54;;;;;;;17.38;15.60;;;16.30;99.90;;;;;;4990179;28;20686;-80
2022/05/17 01:00:24;;;;;;;18.45;16.65;;;16.20;99.90;;;;;;4987276;28;20215;-80
2022/05/17 01:02:55;;;;;;;19.00;16.73;;;16.10;99.90;;;;;;4989080;28;20201;-80
2022/05/17 01:05:25;;;;;;;19.02;16.92;;;16.20;99.90;;;;;;4988853;28;20192;-80
2022/05/17 01:07:55;;;;;;;18.95;16.77;;;16.20;99.90;;;;;;4989319;28;20231;-79
2022/05/17 01:10:25;;;;;;;18.98;16.98;;;16.10;99.90;;;;;;4983606;28;20203;-80
2022/05/17 01:15:37;;;;;;;18.10;16.27;;;15.90;99.90;;;;;;4985509;28;20192;-80
2022/05/17 01:18:05;;;;;;;19.02;16.50;;;15.90;99.90;;;;;;5003709;28;20212;-80
2022/05/17 01:20:34;;;;;;;16.67;15.02;;;16.00;99.90;;;;;;4989209;28;20216;-80
2022/05/17 01:23:03;;;;;;;18.08;16.27;;;15.80;99.90;;;;;;4985037;28;20204;-80
2022/05/17 01:25:33;;;;;;;19.40;16.23;;;15.80;99.90;;;;;;4987417;28;20204;-80
2022/05/17 01:28:05;;;;;;;18.05;16.15;;;15.90;99.90;;;;;;4989499;28;20220;-79
2022/05/17 01:30:32;;;;;;;18.40;16.30;;;15.80;99.90;;;;;;4987279;28;20218;-80
2022/05/17 01:32:59;;;;;;;18.38;16.48;;;15.70;99.90;;;;;;4990115;28;20560;-79
2022/05/17 01:35:27;;;;;;;18.08;15.48;;;15.80;99.90;;;;;;4989979;28;20212;-80
2022/05/17 01:37:56;;;;;;;19.75;15.18;;;15.80;99.90;;;;;;4989041;28;20215;-79
2022/05/17 01:40:25;;;;;;;17.95;15.43;;;15.80;99.90;;;;;;4990803;28;20204;-80
2022/05/17 01:42:53;;;;;;;19.83;15.55;;;15.90;99.90;;;;;;5002527;28;20200;-80
2022/05/17 01:45:21;;;;;;;18.65;16.23;;;15.90;99.90;;;;;;4988015;28;20211;-80
2022/05/17 01:47:48;;;;;;;17.02;15.23;;;15.80;99.90;;;;;;4989823;28;20220;-80
2022/05/17 01:50:16;;;;;;;17.50;15.63;;;15.70;99.90;;;;;;4989578;28;20199;-80
2022/05/17 01:52:44;;;;;;;20.30;17.02;;;15.70;99.90;;;;;;4990169;28;20216;-80
2022/05/17 01:55:12;;;;;;;16.88;15.07;;;15.60;99.90;;;;;;4989000;28;20200;-80
2022/05/17 01:57:41;;;;;;;17.92;15.18;;;15.50;99.90;;;;;;5005336;28;20240;-80
2022/05/17 02:00:12;;;;;;;17.83;15.93;;;15.50;99.90;;;;;;4989797;28;20211;-80
2022/05/17 02:02:43;;;;;;;16.90;15.18;;;15.50;99.90;;;;;;4992590;28;20204;-79
2022/05/17 02:05:10;;;;;;;16.83;14.82;;;15.50;99.90;;;;;;4997084;28;20211;-80
2022/05/17 02:07:38;;;;;;;19.27;17.00;;;15.60;99.90;;;;;;4996021;28;20228;-80
2022/05/17 02:10:07;;;;;;;20.10;16.10;;;15.50;99.90;;;;;;4998323;28;20292;-80
2022/05/17 02:12:35;;;;;;;16.73;15.02;;;15.40;99.90;;;;;;4993530;28;20204;-80
2022/05/17 02:15:04;;;;;;;17.50;15.70;;;15.30;99.90;;;;;;4993992;28;20204;-80
2022/05/17 02:17:31;;;;;;;16.80;14.88;;;15.40;99.90;;;;;;4993502;28;20599;-80
2022/05/17 02:20:00;;;;;;;16.95;15.25;;;15.40;99.90;;;;;;4996849;28;20201;-79
2022/05/17 02:22:27;;;;;;;19.80;16.83;;;15.40;99.90;;;;;;5005071;28;20201;-80
2022/05/17 02:24:55;;;;;;;20.17;15.63;;;15.40;99.90;;;;;;5002219;28;20206;-79
2022/05/17 02:27:22;;;;;;;17.98;16.17;;;15.40;99.90;;;;;;4996643;28;20712;-79
2022/05/17 02:29:49;;;;;;;18.17;15.75;;;15.30;99.90;;;;;;4992751;28;20205;-80
2022/05/17 02:32:18;;;;;;;17.85;16.02;;;15.30;99.90;;;;;;4992323;28;20539;-80
2022/05/17 02:34:45;;;;;;;17.17;15.35;;;15.20;99.90;;;;;;4990503;28;20211;-80
2022/05/17 02:37:15;;;;;;;15.98;14.38;;;15.30;99.90;;;;;;4989438;28;20259;-80
2022/05/17 02:39:46;;;;;;;13.65;12.20;;;15.20;99.90;;;;;;4992194;28;20208;-79
2022/05/17 02:42:13;;;;;;;14.63;13.23;;;15.20;99.90;;;;;;4988708;28;20208;-80
2022/05/17 02:44:41;;;;;;;16.60;14.88;;;15.20;99.90;;;;;;4988822;28;20207;-80
2022/05/17 02:47:10;;;;;;;17.90;16.23;;;15.10;99.90;;;;;;4993293;28;20222;-80
2022/05/17 02:49:40;;;;;;;16.25;14.68;;;15.20;99.90;;;;;;4991310;28;20220;-80
2022/05/17 02:52:09;;;;;;;18.10;14.25;;;15.20;99.90;;;;;;4994451;28;20204;-80
2022/05/17 02:54:37;;;;;;;15.75;14.23;;;15.20;99.90;;;;;;4991288;28;20212;-79
2022/05/17 02:57:05;;;;;;;15.75;14.18;;;15.40;99.90;;;;;;4992065;28;20212;-80
2022/05/17 02:59:33;;;;;;;17.48;15.38;;;15.40;99.90;;;;;;4990860;28;20208;-80
2022/05/17 03:02:00;;;;;;;17.70;15.90;;;15.60;99.90;;;;;;4988082;28;20666;-80
2022/05/17 03:04:28;;;;;;;21.98;17.45;;;15.80;99.90;;;;;;4992055;28;20204;-80
2022/05/17 03:06:59;;;;;;;19.90;15.93;;;15.90;99.90;;;;;;5007212;28;20203;-79
2022/05/17 03:09:26;;;;;;;16.75;14.95;;;16.00;99.90;;;;;;4992604;28;20232;-79
2022/05/17 03:11:54;;;;;;;17.55;14.30;;;16.10;99.90;;;;;;4993838;28;20544;-79
2022/05/17 03:14:22;;;;;;;17.58;13.93;;;16.20;99.90;;;;;;5008402;28;20208;-80
2022/05/17 03:16:50;;;;;;;22.42;15.45;;;16.20;99.90;;;;;;4990842;28;20263;-79
2022/05/17 03:19:18;;;;;;;16.45;14.15;;;16.20;99.90;;;;;;4989513;28;20231;-79
2022/05/17 03:21:46;;;;;;;16.63;14.90;;;16.20;99.90;;;;;;4991452;28;20228;-80
2022/05/17 03:24:14;;;;;;;20.52;14.98;;;16.20;99.90;;;;;;5008704;28;20205;-80
2022/05/17 03:26:43;;;;;;;17.27;14.07;;;16.00;99.90;;;;;;4987290;28;20208;-80
2022/05/17 03:29:11;;;;;;;18.73;12.88;;;16.10;99.90;;;;;;5007282;28;20232;-80
2022/05/17 03:31:38;;;;;;;15.88;12.95;;;16.10;99.90;;;;;;4995378;28;20837;-80
2022/05/17 03:34:05;;;;;;;14.82;12.57;;;16.20;99.90;;;;;;4991996;28;20196;-79
2022/05/17 03:36:33;;;;;;;14.60;13.05;;;16.30;99.90;;;;;;4992140;28;20197;-80
2022/05/17 03:39:00;;;;;;;14.20;12.75;;;16.10;99.90;;;;;;5007565;28;20710;-80
2022/05/17 03:41:29;;;;;;;14.48;13.05;;;16.10;99.90;;;;;;5006590;28;20204;-80
2022/05/17 03:43:57;;;;;;;13.27;11.68;;;16.00;99.90;;;;;;4991462;28;20693;-80
2022/05/17 03:46:24;;;;;;;14.52;12.27;;;16.20;99.90;;;;;;4990292;28;20203;-80
2022/05/17 03:48:52;;;;;;;14.73;11.38;;;16.20;99.90;;;;;;4991615;28;20232;-80
2022/05/17 03:51:20;;;;;;;14.98;11.95;;;16.20;99.90;;;;;;4993209;28;20207;-80
2022/05/17 03:53:50;;;;;;;15.02;11.20;;;16.30;99.90;;;;;;4989791;28;20207;-79
2022/05/17 03:56:17;;;;;;;13.60;9.73;;;16.30;99.90;;;;;;4991331;28;20204;-80
2022/05/17 03:58:46;;;;;;;16.35;10.65;;;16.30;99.90;;;;;;4991441;28;20235;-80
2022/05/17 04:01:14;;;;;;;12.98;10.27;;;16.30;99.90;;;;;;5007680;28;20212;-80
2022/05/17 04:03:43;;;;;;;11.82;9.82;;;16.30;99.90;;;;;;4992928;28;20220;-80
2022/05/17 04:06:11;;;;;;;12.45;10.70;;;16.50;99.90;;;;;;4987092;28;20207;-80
2022/05/17 04:08:39;;;;;;;12.82;10.65;;;16.50;99.90;;;;;;4990681;28;20228;-80
2022/05/17 04:11:07;;;;;;;20.35;11.15;;;16.50;99.90;;;;;;4988195;28;20203;-80
2022/05/17 04:13:35;;;;;;;12.18;9.38;;;16.50;99.90;;;;;;4990267;28;20201;-80
2022/05/17 04:16:05;;;;;;;12.32;10.20;;;16.50;99.90;;;;;;5008697;28;20205;-80
2022/05/17 04:18:32;;;;;;;13.30;10.77;;;16.60;99.90;;;;;;4990552;28;20238;-80
2022/05/17 04:21:00;;;;;;;14.98;10.43;;;16.50;99.90;;;;;;4993258;28;20535;-80
2022/05/17 04:23:28;;;;;;;11.85;9.95;;;16.50;99.90;;;;;;4989461;28;20207;-80
2022/05/17 04:26:00;;;;;;;11.13;9.70;;;16.50;99.90;;;;;;4990808;28;20200;-80
2022/05/17 04:28:28;;;;;;;11.30;9.35;;;16.50;99.90;;;;;;4989350;28;20729;-80
2022/05/17 04:30:56;;;;;;;11.70;9.70;;;16.40;99.90;;;;;;4990972;28;20200;-80
2022/05/17 04:33:25;;;;;;;11.68;10.27;;;16.40;99.90;;;;;;4991867;28;20208;-82
2022/05/17 04:35:52;;;;;;;13.07;9.88;;;16.50;99.90;;;;;;4986303;28;20201;-80
2022/05/17 04:38:26;;;;;;;12.82;9.77;;;16.60;99.90;;;;;;4991463;28;20235;-81
2022/05/17 04:40:53;;;;;;;11.30;9.30;;;16.60;99.90;;;;;;4991486;28;20208;-81
2022/05/17 04:43:23;;;;;;;10.27;9.18;;;16.70;99.90;;;;;;4991533;28;20207;-80
2022/05/17 04:45:51;;;;;;;13.02;8.80;;;16.80;99.90;;;;;;4992954;28;20205;-80
2022/05/17 04:48:20;;;;;;;11.35;9.35;;;16.80;99.90;;;;;;4994098;28;20212;-80
2022/05/17 04:50:49;;;;;;;11.18;9.80;;;16.70;99.90;;;;;;4989571;28;20188;-80
2022/05/17 04:53:17;;;;;;;12.05;9.45;;;16.50;99.90;;;;;;4993053;28;20197;-80
2022/05/17 04:55:45;;;;;;;13.63;10.00;;;16.50;99.90;;;;;;4994849;28;20669;-80
2022/05/17 04:58:12;;;;;;;11.23;9.75;;;16.50;99.90;;;;;;4993840;28;20228;-82
2022/05/17 05:00:40;;;;;;;12.27;9.02;;;16.40;99.90;;;;;;4994221;28;20200;-82
2022/05/17 05:03:07;;;;;;;9.48;8.48;;;16.30;99.90;;;;;;4995380;28;20207;-81
2022/05/17 05:05:37;;;;;;;11.13;8.50;;;16.40;99.90;;;;;;5009616;28;20207;-81
2022/05/17 05:08:07;;;;;;;13.07;9.77;;;16.50;99.90;;;;;;4993250;28;20248;-81
2022/05/17 05:10:34;;;;;;;13.93;10.30;;;16.50;99.90;;;;;;4992862;28;20204;-81
2022/05/17 05:13:02;;;;;;;12.38;9.88;;;16.60;99.90;;;;;;4986965;28;20208;-80
2022/05/17 05:15:31;;;;;;;12.85;9.48;;;16.70;99.90;;;;;;4989173;28;20777;-80
2022/05/17 05:17:59;;;;;;;10.95;9.02;;;16.80;99.90;;;;;;4987539;28;20216;-81
2022/05/17 05:20:30;;;;;;;10.77;9.75;;;16.80;99.90;;;;;;5007219;28;20204;-80
2022/05/17 05:22:58;;;;;;;11.13;8.90;;;16.70;99.90;;;;;;4993348;28;20204;-81
2022/05/17 05:25:29;;;;;;;13.80;9.68;;;16.80;99.90;;;;;;4994432;28;20204;-80
2022/05/17 05:27:56;;;;;;;13.18;9.82;;;16.80;99.90;;;;;;4993086;28;20224;-80
2022/05/17 05:30:26;;;;;;;12.82;10.70;;;16.80;99.90;;;;;;5008024;28;20203;-80
2022/05/17 05:33:02;;;;;;;11.40;9.85;;;16.70;99.90;;;;;;4993615;28;20199;-80
2022/05/17 05:35:29;;;;;;;11.13;9.98;;;16.80;99.90;;;;;;4992400;28;20203;-80
2022/05/17 05:37:57;;;;;;;11.73;10.23;;;16.90;99.90;;;;;;4995284;28;20233;-80
2022/05/17 05:40:24;;;;;;;12.30;9.68;;;16.90;99.90;;;;;;4994954;28;20203;-81
2022/05/17 05:42:53;;;;;;;13.23;10.00;;;17.00;99.90;;;;;;5011248;28;20231;-81
2022/05/17 05:45:21;;;;;;;9.32;8.32;;;17.20;99.90;;;;;;4991261;28;20208;-80
2022/05/17 05:47:48;;;;;;;12.57;8.48;;;17.20;99.90;;;;;;4991831;28;20216;-80
2022/05/17 05:50:16;;;;;;;9.30;8.40;;;17.50;99.90;;;;;;4995632;28;20207;-80
2022/05/17 05:52:47;;;;;;;8.60;7.55;;;17.50;99.90;;;;;;4994575;28;20205;-80
2022/05/17 05:55:23;;;;;;;11.75;8.88;;;17.60;99.90;;;;;;4975847;28;20204;-80
2022/05/17 05:58:25;;;;;;;10.10;9.10;;;17.60;99.90;;;;;;4983550;28;20220;-79
2022/05/17 06:00:53;;;;;;;9.40;8.40;;;17.60;99.90;;;;;;5008673;28;20195;-79
2022/05/17 06:03:20;;;;;;;13.10;8.68;;;17.70;99.90;;;;;;5010338;28;20207;-79
2022/05/17 06:05:48;;;;;;;12.07;8.93;;;17.70;99.90;;;;;;4995721;28;20196;-81
2022/05/17 06:08:16;;;;;;;10.00;8.23;;;17.60;99.90;;;;;;4992329;28;20235;-81
2022/05/17 06:10:44;;;;;;;12.52;8.93;;;17.70;99.90;;;;;;4988564;28;20211;-79
2022/05/17 06:13:13;;;;;;;12.82;9.32;;;17.70;99.90;;;;;;5011524;28;20213;-79
2022/05/17 06:15:42;;;;;;;16.27;9.40;;;17.80;99.90;;;;;;4995667;28;20219;-79
2022/05/17 06:18:11;;;;;;;9.68;8.70;;;17.80;99.90;;;;;;4992002;28;20217;-78
2022/05/17 06:20:38;;;;;;;10.70;7.93;;;17.70;99.90;;;;;;5008722;28;20212;-80
2022/05/17 06:23:10;;;;;;;12.70;8.82;;;17.90;99.90;;;;;;5010295;28;20207;-80
2022/05/17 06:25:40;;;;;;;14.02;8.68;;;18.00;99.90;;;;;;4992626;28;20256;-79
2022/05/17 06:28:10;;;;;;;13.68;8.23;;;18.10;99.90;;;;;;4992943;28;20231;-80
2022/05/17 06:30:38;;;;;;;9.45;8.45;;;18.30;99.90;;;;;;5001970;28;20204;-80
2022/05/17 06:33:10;;;;;;;15.02;9.13;;;18.40;99.90;;;;;;4983741;28;20208;-80
2022/05/17 06:35:38;;;;;;;10.80;7.72;;;18.30;99.90;;;;;;4989166;28;20200;-80
2022/05/17 06:38:05;;;;;;;12.23;8.80;;;18.30;99.90;;;;;;4988120;28;20228;-80
2022/05/17 06:40:33;;;;;;;14.52;8.43;;;18.40;99.90;;;;;;4989607;28;20219;-80
2022/05/17 06:43:01;;;;;;;9.32;8.30;;;18.50;99.90;;;;;;4987341;28;20196;-80
2022/05/17 06:45:29;;;;;;;13.23;8.52;;;18.70;99.90;;;;;;4985537;28;20811;-80
2022/05/17 06:47:57;;;;;;;14.55;9.52;;;18.70;99.90;;;;;;4984498;28;20224;-80
2022/05/17 06:50:25;;;;;;;11.48;8.75;;;18.60;99.90;;;;;;4990542;28;20682;-80
2022/05/17 06:52:57;;;;;;;10.48;8.55;;;18.50;99.90;;;;;;4992210;28;20204;-80
2022/05/17 06:55:27;;;;;;;16.02;10.35;;;18.60;99.90;;;;;;4990849;28;20215;-79
2022/05/17 06:57:58;;;;;;;12.50;9.85;;;18.60;99.90;;;;;;4990696;28;20208;-79
2022/05/17 07:00:26;;;;;;;15.55;9.68;;;18.70;99.90;;;;;;4986149;28;20232;-79
2022/05/17 07:02:54;;;;;;;11.55;8.68;;;18.80;99.90;;;;;;4985618;28;20212;-80
2022/05/17 07:05:21;;;;;;;13.57;7.80;;;18.90;99.90;;;;;;4989706;28;20204;-79
2022/05/17 07:07:50;;;;;;;12.25;8.73;;;18.90;99.90;;;;;;4991326;28;20248;-79
2022/05/17 07:13:08;;;;;;;12.55;8.13;;;19.00;99.90;;;;;;4989651;28;20197;-79
2022/05/17 07:15:36;;;;;;;10.85;7.40;;;18.90;99.90;;;;;;4988305;28;20208;-80
2022/05/17 07:18:04;;;;;;;10.70;7.72;;;19.00;99.90;;;;;;4989965;28;20225;-79
2022/05/17 07:20:34;;;;;;;12.57;8.20;;;18.90;99.90;;;;;;4991479;28;20694;-78
2022/05/17 07:23:04;;;;;;;13.85;8.45;;;19.00;99.90;;;;;;4982475;28;20211;-79
2022/05/17 07:25:32;;;;;;;10.27;7.75;;;19.10;99.90;;;;;;4990830;28;20208;-80
2022/05/17 07:28:00;;;;;;;10.35;6.97;;;19.10;99.90;;;;;;4989592;28;20232;-79
2022/05/17 07:30:27;;;;;;;11.20;7.20;;;19.10;99.90;;;;;;4991567;28;20211;-80
2022/05/17 07:32:55;;;;;;;17.13;8.52;;;19.10;99.90;;;;;;4992426;28;20208;-80
2022/05/17 07:35:23;;;;;;;10.52;7.45;;;19.10;99.90;;;;;;4992673;28;20205;-80
2022/05/17 07:37:50;;;;;;;11.10;7.38;;;19.30;99.90;;;;;;4991279;28;20212;-80
2022/05/17 07:40:20;;;;;;;10.85;6.68;;;19.20;99.90;;;;;;4992746;28;20217;-80
2022/05/17 07:42:48;;;;;;;10.80;6.55;;;19.20;99.90;;;;;;4994061;28;20212;-81
2022/05/17 07:45:16;;;;;;;9.95;6.32;;;19.30;99.90;;;;;;4994542;28;20207;-81
2022/05/17 07:47:43;;;;;;;10.38;7.28;;;19.30;99.90;;;;;;4994854;28;20216;-81
2022/05/17 07:50:11;;;;;;;8.75;6.57;;;19.40;99.90;;;;;;5009742;28;20196;-81
2022/05/17 07:52:39;;;;;;;10.85;6.80;;;19.40;99.90;;;;;;4988302;28;20212;-81
2022/05/17 07:55:07;;;;;;;11.05;6.68;;;19.40;99.90;;;;;;4994876;28;20219;-81
2022/05/17 07:57:39;;;;;;;9.52;7.28;;;19.50;99.90;;;;;;4994423;28;20682;-80
2022/05/17 08:00:09;;;;;;;11.57;6.90;;;19.30;99.90;;;;;;4991577;28;20212;-81
2022/05/17 08:02:40;;;;;;;12.10;7.60;;;19.30;99.90;;;;;;4992856;28;20201;-81
2022/05/17 08:05:10;;;;;;;11.70;7.32;;;19.20;99.90;;;;;;4989973;28;20192;-81
2022/05/17 08:07:38;;;;;;;10.88;8.20;;;19.20;99.90;;;;;;4989681;28;20243;-80
2022/05/17 08:10:06;;;;;;;12.88;8.02;;;19.20;99.90;;;;;;5009131;28;20197;-80
2022/05/17 08:12:34;;;;;;;10.90;7.25;;;19.20;99.90;;;;;;4996779;28;20219;-81
2022/05/17 08:15:03;;;;;;;11.18;5.97;;;19.50;99.90;;;;;;4993870;28;20200;-80
2022/05/17 08:17:30;;;;;;;11.00;7.70;;;19.80;99.90;;;;;;4990791;28;20541;-81
2022/05/17 08:19:58;;;;;;;11.73;7.78;;;20.00;99.90;;;;;;4992734;28;20239;-81
2022/05/17 08:22:25;;;;;;;12.23;7.65;;;20.00;99.90;;;;;;4989891;28;20593;-81
2022/05/17 08:27:40;;;;;;;14.77;10.77;;;20.00;99.90;;;;;;4987328;28;20216;-80
2022/05/17 08:30:13;;;;;;;13.48;8.57;;;19.90;99.90;;;;;;4990362;28;20627;-80
2022/05/17 08:35:37;;;;;;;15.38;9.70;;;20.00;99.90;;;;;;5000717;28;20211;-80
2022/05/17 08:38:05;;;;;;;12.73;8.55;;;20.10;99.90;;;;;;4991731;28;20693;-81
2022/05/17 08:40:39;;;;;;;11.80;8.70;;;20.20;99.90;;;;;;4992555;28;20231;-81
2022/05/17 08:43:17;;;;;;;11.82;8.52;;;20.30;99.90;;;;;;4991412;28;20197;-81
2022/05/17 08:46:03;;;;;;;11.02;8.65;;;20.20;99.90;;;;;;4991970;28;20204;-81
2022/05/17 08:48:37;;;;;;;9.85;7.97;;;20.20;99.90;;;;;;4991420;28;20220;-81
2022/05/17 08:51:05;;;;;;;9.95;8.00;;;20.30;99.90;;;;;;5009748;28;20192;-81
2022/05/17 08:53:34;;;;;;;10.15;6.93;;;20.30;99.90;;;;;;4992357;28;20215;-81
2022/05/17 08:56:01;;;;;;;12.43;7.80;;;20.20;99.90;;;;;;4991998;28;20204;-81
2022/05/17 08:58:32;;;;;;;10.07;7.45;;;20.20;99.90;;;;;;4993214;28;20224;-81
2022/05/17 09:01:06;;;;;;;12.35;8.13;;;20.20;99.90;;;;;;4992237;28;20219;-80
2022/05/17 09:03:42;;;;;;;9.40;6.38;;;20.20;99.90;;;;;;4982680;28;20227;-81
2022/05/17 09:06:20;;;;;;;12.70;7.30;;;20.30;99.90;;;;;;4988287;28;20658;-81
2022/05/17 09:08:56;;;;;;;10.63;7.70;;;20.30;99.90;;;;;;4987096;28;20639;-79
2022/05/17 09:11:32;;;;;;;12.25;7.63;;;20.10;99.90;;;;;;5003764;28;20208;-80
2022/05/17 09:14:03;;;;;;;10.35;6.78;;;20.20;99.90;;;;;;4989440;28;20208;-80
2022/05/17 09:16:41;;;;;;;12.07;7.78;;;20.30;99.90;;;;;;4988038;28;20204;-80
2022/05/17 09:19:09;;;;;;;10.98;6.80;;;20.20;99.90;;;;;;4986938;28;20315;-80
2022/05/17 09:21:41;;;;;;;7.60;5.72;;;20.10;99.90;;;;;;4986005;28;20906;-77
2022/05/17 09:24:12;;;;;;;13.43;6.82;;;20.40;99.90;;;;;;4996076;28;20326;-78
2022/05/17 09:26:41;;;;;;;8.68;6.13;;;20.50;99.90;;;;;;4985329;28;20211;-83
2022/05/17 09:29:15;;;;;;;8.85;6.55;;;20.60;99.90;;;;;;4986600;28;20220;-78
2022/05/17 09:31:52;;;;;;;8.93;6.57;;;20.70;99.90;;;;;;4984516;28;20199;-76
2022/05/17 09:34:32;;;;;;;10.20;5.75;;;20.70;99.90;;;;;;4986560;28;20667;-78
2022/05/17 09:37:05;;;;;;;7.75;5.88;;;20.60;99.90;;;;;;4984613;28;20223;-77
2022/05/17 09:39:33;;;;;;;11.25;6.03;;;20.50;99.90;;;;;;4983785;28;20223;-76
2022/05/17 09:42:03;;;;;;;9.63;6.07;;;20.40;99.90;;;;;;5001379;28;20228;-77
2022/05/17 09:44:33;;;;;;;9.07;5.82;;;20.30;99.90;;;;;;4984115;28;20578;-77
2022/05/17 09:47:06;;;;;;;11.40;6.55;;;20.50;99.90;;;;;;4986676;28;20200;-76
2022/05/17 09:52:34;;;;;;;10.48;6.55;;;20.30;99.90;;;;;;5001431;28;20705;-76
2022/05/17 09:55:21;;;;;;;14.40;6.65;;;20.30;99.90;;;;;;5002868;28;20211;-76
2022/05/17 09:57:58;;;;;;;9.43;5.10;;;20.30;99.90;;;;;;4987239;28;20601;-76
2022/05/17 10:00:30;;;;;;;11.25;5.38;;;20.40;99.90;;;;;;4987966;28;20596;-76
2022/05/17 10:03:01;;;;;;;7.65;5.63;;;20.20;99.90;;;;;;5002258;28;20959;-76
2022/05/17 10:05:43;;;;;;;8.48;5.03;;;20.20;99.90;;;;;;4987230;28;20204;-76
2022/05/17 10:08:29;;;;;;;9.65;4.80;;;20.20;99.90;;;;;;4985860;28;20239;-76
2022/05/17 10:11:12;;;;;;;11.30;5.82;;;20.50;99.90;;;;;;5002546;28;20201;-75
2022/05/17 10:13:55;;;;;;;8.80;5.10;;;20.60;99.90;;;;;;4986216;28;20685;-77
2022/05/17 10:16:29;;;;;;;9.90;5.40;;;20.70;99.90;;;;;;4986831;28;20216;-77
2022/05/17 10:19:03;;;;;;;10.35;4.57;;;20.70;99.90;;;;;;4988792;28;20723;-78
2022/05/17 10:21:38;;;;;;;7.80;5.13;;;20.70;99.90;;;;;;4997133;28;20232;-78
2022/05/17 10:24:15;;;;;;;9.55;5.45;;;20.80;99.90;;;;;;4988308;28;20204;-77
2022/05/17 10:26:47;;;;;;;10.13;5.38;;;20.60;99.90;;;;;;5001872;28;20216;-78
2022/05/17 10:29:25;;;;;;;5.07;4.07;;;20.70;99.90;;;;;;4990714;28;20216;-78
2022/05/17 10:32:00;;;;;;;7.82;4.43;;;20.80;99.90;;;;;;4990692;28;20204;-77
2022/05/17 10:34:43;;;;;;;8.95;4.30;;;20.70;99.90;;;;;;4990318;28;20218;-77
2022/05/17 10:37:16;;;;;;;6.40;4.32;;;20.70;99.90;;;;;;5005151;28;20612;-78
2022/05/17 10:39:51;;;;;;;7.35;4.07;;;20.80;99.90;;;;;;4992142;28;20204;-79
2022/05/17 10:42:20;;;;;;;6.78;4.03;;;20.90;99.90;;;;;;5007493;28;20230;-78
2022/05/17 10:44:53;;;;;;;6.68;3.72;;;20.70;99.90;;;;;;4992632;28;20212;-78
2022/05/17 10:47:30;;;;;;;7.88;4.68;;;20.90;99.90;;;;;;4987437;28;20212;-78
2022/05/17 10:50:23;;;;;;;7.00;4.95;;;20.80;99.90;;;;;;4994905;28;20196;-79
2022/05/17 10:53:16;;;;;;;8.80;4.97;;;20.90;99.90;;;;;;5005701;28;20201;-79
2022/05/17 10:55:52;;;;;;;6.10;4.50;;;20.90;99.90;;;;;;5003061;28;20208;-79
2022/05/17 10:58:31;;;;;;;6.72;4.50;;;20.90;99.90;;;;;;5006201;28;20225;-78
2022/05/17 11:01:06;;;;;;;6.82;4.85;;;21.10;99.90;;;;;;5004674;28;20220;-78
2022/05/17 11:04:10;;;;;;;6.82;4.35;;;21.20;99.90;;;;;;4999608;28;20219;-78
2022/05/17 11:06:45;;;;;;;8.73;4.45;;;21.30;99.90;;;;;;4984149;28;20224;-79
2022/05/17 11:09:20;;;;;;;7.22;4.32;;;21.50;99.90;;;;;;4994239;28;20228;-79
2022/05/17 11:12:05;;;;;;;7.45;3.85;;;21.50;99.90;;;;;;4993029;28;20207;-78
2022/05/17 11:14:41;;;;;;;7.05;3.90;;;21.50;99.90;;;;;;4989830;28;20200;-78
2022/05/17 11:17:18;;;;;;;7.35;4.05;;;21.60;99.90;;;;;;5002760;28;20208;-79
2022/05/17 11:19:51;;;;;;;6.03;4.40;;;21.80;99.90;;;;;;4998354;28;20200;-79
2022/05/17 11:22:27;;;;;;;8.93;4.35;;;22.00;99.90;;;;;;4988778;28;20232;-79
2022/05/17 11:25:22;;;;;;;5.97;3.58;;;21.80;99.90;;;;;;5007426;28;20195;-79
2022/05/17 11:28:16;;;;;;;7.70;3.53;;;21.30;99.90;;;;;;5009911;28;20227;-79
2022/05/17 11:30:49;;;;;;;8.80;4.03;;;21.40;99.90;;;;;;5008525;28;20204;-79
2022/05/17 11:33:31;;;;;;;5.93;3.97;;;21.50;99.90;;;;;;4993578;28;20200;-79
2022/05/17 11:36:00;;;;;;;8.63;3.90;;;21.60;99.90;;;;;;4993155;28;20203;-79
2022/05/17 11:38:52;;;;;;;9.27;3.88;;;21.60;99.90;;;;;;4990275;28;20228;-79
2022/05/17 11:41:23;;;;;;;7.30;3.70;;;21.30;99.90;;;;;;4991736;28;20223;-79
2022/05/17 11:44:11;;;;;;;7.07;3.85;;;21.30;99.90;;;;;;5004660;28;20205;-79
2022/05/17 11:46:51;;;;;;;6.85;3.65;;;21.30;99.90;;;;;;4990621;28;20204;-79
2022/05/17 11:49:45;;;;;;;6.63;3.40;;;21.50;99.90;;;;;;4991583;28;20224;-78
2022/05/17 11:52:25;;;;;;;6.97;3.47;;;21.30;99.90;;;;;;5010231;28;20208;-79
2022/05/17 11:54:55;;;;;;;6.35;3.55;;;21.20;99.90;;;;;;5007306;28;20208;-79
2022/05/17 11:58:03;;;;;;;8.73;3.97;;;21.20;99.90;;;;;;5010884;28;20200;-79
2022/05/17 12:00:53;;;;;;;4.75;3.55;;;21.30;99.90;;;;;;4996096;28;20208;-79
2022/05/17 12:03:53;;;;;;;6.43;3.78;;;21.40;99.90;;;;;;4984087;28;20204;-79
2022/05/17 12:07:04;;;;;;;7.38;3.90;;;21.40;99.90;;;;;;4994991;28;20678;-79
2022/05/17 12:09:35;;;;;;;7.05;4.75;;;21.60;99.90;;;;;;4990065;28;20232;-79
2022/05/17 12:12:47;;;;;;;10.00;5.60;;;21.50;99.90;;;;;;4995332;28;20197;-79
2022/05/17 12:15:37;;;;;;;7.13;4.00;;;21.40;99.90;;;;;;4991695;28;20560;-79
2022/05/17 12:18:38;;;;;;;9.38;4.53;;;21.40;99.90;;;;;;4991994;28;20227;-82
2022/05/17 12:21:34;;;;;;;7.55;4.22;;;21.40;99.90;;;;;;4990603;28;20674;-83
2022/05/17 12:24:27;;;;;;;7.95;4.95;;;21.50;99.90;;;;;;4995717;28;20207;-83
2022/05/17 12:27:26;;;;;;;6.30;4.38;;;21.50;99.90;;;;;;4993739;28;20199;-83
2022/05/17 12:48:46;;;;;;;8.38;5.20;;;21.40;99.90;;;;;;5010919;28;20211;-82
2022/05/17 12:51:26;;;;;;;8.43;4.55;;;21.50;99.90;;;;;;4995463;28;20196;-82
2022/05/17 12:54:05;;;;;;;7.15;4.53;;;21.50;99.90;;;;;;5001639;28;20214;-82
2022/05/17 12:56:43;;;;;;;7.95;4.75;;;21.40;99.90;;;;;;4999199;28;20211;-82
2022/05/17 12:59:13;;;;;;;7.65;4.82;;;21.50;99.90;;;;;;4999630;28;20230;-82
2022/05/17 13:01:42;;;;;;;6.85;4.60;;;21.50;99.90;;;;;;4998874;28;20205;-82
2022/05/17 13:04:14;;;;;;;9.07;5.40;;;21.50;99.90;;;;;;5004205;28;20219;-82
2022/05/17 13:06:47;;;;;;;6.40;5.18;;;21.50;99.90;;;;;;5003936;28;20208;-82
2022/05/17 13:09:18;;;;;;;7.85;4.82;;;21.40;99.90;;;;;;4995646;28;20235;-82
2022/05/17 13:11:46;;;;;;;8.95;4.72;;;21.40;99.90;;;;;;5000051;28;20556;-82
2022/05/17 13:14:22;;;;;;;8.30;4.28;;;21.40;99.90;;;;;;4996296;28;20199;-82
2022/05/17 13:16:53;;;;;;;7.95;4.35;;;21.50;99.90;;;;;;4994313;28;20192;-81
2022/05/17 13:19:28;;;;;;;7.57;4.30;;;21.50;99.90;;;;;;5009345;28;20208;-81
2022/05/17 13:22:01;;;;;;;7.85;4.72;;;21.50;99.90;;;;;;4996883;28;20207;-81
2022/05/17 13:24:41;;;;;;;7.90;4.28;;;21.40;99.90;;;;;;4993033;28;20211;-82
2022/05/17 13:27:20;;;;;;;5.80;4.35;;;21.40;99.90;;;;;;4994716;28;20206;-81
2022/05/17 13:29:53;;;;;;;7.57;4.05;;;21.40;99.90;;;;;;4999920;28;20204;-82
2022/05/17 13:32:26;;;;;;;4.88;4.20;;;21.40;99.90;;;;;;5001224;28;20192;-82